Latest Weather Observations for Low Isles

IDQ60801

Issued at 10:32 am EST Thursday 2 July 2015 (issued every 30 minutes, with the page automatically refreshed every 10 minutes)

About weather observations | Map of weather stations | Latest weather observations for QLD | Other Formats
Station Details ID: 031037 Name: LOW ISLES LIGHTHOUSE Lat: -16.38 Lon: 145.56 Height: 2.9 m
Data from the previous 72 hours. | See also: Recent months at Low Isles
Date/Time
EST
Temp
°C
App
Temp
°C
Dew
Point
Rel
Hum
%
Delta-T
°C
Wind Press
QNH
hPa
Press
MSL
hPa
Rain
since 9 am
mm
Dir
 
Spd
km/h
Gust
km/h
Spd
kts
Gust
kts
02/10:30am 23.3 22.5 18.0 72 3.3 SSE 19 24 10 13 1020.7 - 0.0
02/10:00am 23.1 22.3 18.0 73 3.2 S 19 20 10 11 1020.8 - 0.0
02/09:30am 22.8 21.0 17.9 74 3.1 S 24 28 13 15 1020.6 - 0.0
02/09:00am 22.8 21.2 18.3 76 2.8 S 24 28 13 15 1020.5 1020.4 0.0
02/08:30am 22.5 20.3 17.8 75 2.9 S 26 30 14 16 1020.0 - 0.0
02/08:00am 22.6 20.4 18.6 78 2.5 S 28 32 15 17 1019.6 - 0.0
02/07:30am 22.4 20.7 18.0 76 2.7 S 24 28 13 15 1019.3 - 0.0
02/07:00am 22.4 20.7 18.0 76 2.7 S 24 30 13 16 1019.1 - 0.0
02/06:30am 22.4 20.4 18.2 77 2.6 S 26 30 14 16 1018.8 - 0.0
02/06:00am 22.1 21.1 17.9 77 2.6 S 20 26 11 14 1018.5 1018.4 0.0
02/05:30am 22.4 19.5 18.0 76 2.7 S 30 33 16 18 1018.3 - 0.0
02/05:00am 22.4 19.9 18.0 76 2.7 S 28 32 15 17 1018.1 - 0.0
02/04:30am 22.1 20.0 18.1 78 2.5 S 26 32 14 17 1018.0 - 0.0
02/04:00am 21.7 20.9 17.9 79 2.4 S 19 20 10 11 1018.1 - 0.0
02/03:30am 21.9 20.9 17.5 76 2.7 SSW 19 22 10 12 1018.3 - 0.0
02/03:00am 22.1 21.2 17.7 76 2.7 SSW 19 20 10 11 1018.4 1018.3 0.0
02/02:30am 22.4 21.6 18.0 76 2.7 SSW 19 22 10 12 1018.5 - 0.0
02/02:00am 22.3 21.2 17.4 74 3.0 S 19 22 10 12 1018.8 - 0.0
02/01:30am 22.5 21.4 17.8 75 2.9 SSW 20 24 11 13 1019.2 - 0.0
02/01:00am 22.3 21.8 17.7 75 2.9 SSW 17 20 9 11 1019.7 - 0.0
02/12:30am 22.4 21.8 17.5 74 3.0 S 17 20 9 11 1019.9 - 0.0
02/12:00am 22.4 21.2 17.1 72 3.2 S 19 24 10 13 1019.9 1019.8 0.0
 
Date/Time
EST
Temp
°C
App
Temp
°C
Dew
Point
Rel
Hum
%
Delta-T
°C
Wind Press
QNH
hPa
Press
MSL
hPa
Rain
since 9 am
mm
Dir
 
Spd
km/h
Gust
km/h
Spd
kts
Gust
kts
01/11:30pm 22.6 21.6 17.9 75 2.9 S 20 24 11 13 1020.3 - 0.0
01/11:00pm 22.7 21.7 18.0 75 2.9 S 20 24 11 13 1020.5 - 0.0
01/10:30pm 22.8 22.0 17.9 74 3.1 S 19 24 10 13 1020.7 - 0.0
01/10:00pm 23.0 21.5 17.7 72 3.3 S 22 28 12 15 1020.6 - 0.0
01/09:30pm 22.9 21.8 17.8 73 3.2 SSE 20 24 11 13 1020.4 - 0.0
01/09:00pm 22.9 21.3 19.1 79 2.4 SSE 26 30 14 16 1020.2 1020.1 0.0
01/08:30pm 23.0 20.4 18.7 77 2.7 SE 30 32 16 17 1020.1 - 0.0
01/08:00pm 23.1 20.2 18.8 77 2.7 SSE 32 37 17 20 1019.8 - 0.0
01/07:30pm 22.9 20.0 18.9 78 2.5 SE 32 37 17 20 1019.5 - 0.0
01/07:00pm 23.0 20.0 18.7 77 2.7 SSE 32 35 17 19 1019.1 - 0.0
01/06:30pm 22.9 20.1 19.1 79 2.4 SE 32 37 17 20 1018.9 - 0.0
01/06:00pm 23.0 19.6 19.0 78 2.5 SE 35 43 19 23 1018.5 1018.4 0.0
01/05:30pm 23.0 20.0 18.7 77 2.7 ESE 32 37 17 20 1018.2 - 0.0
01/05:00pm 23.3 20.1 18.6 75 3.0 ESE 33 41 18 22 1017.9 - 0.0
01/04:30pm 23.8 20.8 18.7 73 3.2 SE 32 41 17 22 1017.7 - 0.0
01/04:00pm 24.1 20.8 18.3 70 3.7 SE 33 43 18 23 1017.6 - 0.0
01/03:30pm 24.4 21.2 18.6 70 3.7 SE 33 43 18 23 1017.6 - 0.0
01/03:00pm 24.6 21.2 19.0 71 3.6 SE 35 43 19 23 1017.6 1017.5 0.0
01/02:30pm 24.7 21.3 18.9 70 3.7 SE 35 43 19 23 1017.9 - 0.0
01/02:00pm 24.7 20.9 18.9 70 3.7 SE 37 44 20 24 1018.1 - 0.0
01/01:30pm 24.6 20.2 19.4 73 3.3 SE 41 46 22 25 1018.4 - 0.0
01/01:00pm 24.4 20.0 19.2 73 3.3 SSE 41 48 22 26 1018.8 - 0.0
01/12:30pm 24.0 19.7 18.6 72 3.4 SSE 39 48 21 26 1019.3 - 0.0
01/12:00pm 24.1 21.2 19.2 74 3.1 SSE 33 37 18 20 1019.7 1019.6 0.0
01/11:30am 23.7 20.1 18.6 73 3.2 SSE 35 41 19 22 1020.0 - 0.0
01/11:00am 23.6 20.4 18.7 74 3.1 SSE 33 39 18 21 1020.4 - 0.0
01/10:30am 23.0 19.9 18.3 75 2.9 SSE 32 37 17 20 1020.6 - 0.0
01/10:00am 22.8 20.2 18.6 77 2.6 S 30 35 16 19 1020.5 - 0.0
01/09:30am 22.6 20.0 18.6 78 2.5 SSE 30 35 16 19 1020.7 - 0.0
01/09:00am 22.6 19.8 18.2 76 2.7 SSE 30 35 16 19 1020.6 1020.5 0.8
01/08:30am 22.4 19.6 18.2 77 2.6 S 30 33 16 18 1020.3 - 0.8
01/08:00am 22.3 19.2 18.3 78 2.5 SSE 32 35 17 19 1020.0 - 0.8
01/07:30am 22.3 19.2 18.5 79 2.4 SSE 32 35 17 19 1019.7 - 0.8
01/07:00am 22.4 19.3 18.4 78 2.5 SSE 32 37 17 20 1019.4 - 0.8
01/06:30am 22.3 18.6 18.3 78 2.5 SSE 35 41 19 22 1019.1 - 0.8
01/06:00am 22.3 19.1 18.5 79 2.4 SSE 33 39 18 21 1018.8 1018.7 0.8
01/05:30am 22.4 18.9 18.8 80 2.3 SSE 35 41 19 22 1018.7 - 0.8
01/05:00am 22.2 18.6 18.6 80 2.3 SSE 35 41 19 22 1018.5 - 0.8
01/04:30am 22.4 18.9 18.8 80 2.3 SSE 35 41 19 22 1018.5 - 0.8
01/04:00am 22.3 19.1 18.7 80 2.3 SSE 33 37 18 20 1018.5 - 0.8
01/03:30am 22.3 18.9 19.1 82 2.0 S 35 39 19 21 1018.4 - 0.8
01/03:00am 22.2 18.9 19.2 83 1.9 SSE 35 39 19 21 1018.5 1018.4 0.8
01/02:30am 22.5 19.3 19.5 83 1.9 SSE 35 43 19 23 1018.6 - 0.8
01/02:00am 22.6 19.8 19.4 82 2.0 SSE 33 37 18 20 1018.7 - 0.8
01/01:30am 22.6 20.0 19.6 83 1.9 SSE 32 35 17 19 1019.0 - 0.8
01/01:00am 22.7 20.2 19.7 83 1.9 SSE 32 35 17 19 1019.3 - 0.8
01/12:30am 22.8 20.2 20.0 84 1.8 SSE 33 37 18 20 1019.4 - 0.8
01/12:00am 22.7 20.0 19.7 83 1.9 SSE 33 39 18 21 1019.5 1019.4 0.8
 
Date/Time
EST
Temp
°C
App
Temp
°C
Dew
Point
Rel
Hum
%
Delta-T
°C
Wind Press
QNH
hPa
Press
MSL
hPa
Rain
since 9 am
mm
Dir
 
Spd
km/h
Gust
km/h
Spd
kts
Gust
kts
30/11:30pm 22.3 22.2 20.0 87 1.5 SSE 20 26 11 14 1019.7 - 0.6
30/11:00pm 23.2 19.7 20.3 84 1.9 SSE 39 46 21 25 1019.7 - 0.0
30/10:30pm 23.2 19.3 20.3 84 1.9 SE 41 48 22 26 1019.9 - 0.0
30/10:00pm 23.4 20.6 20.3 83 2.0 SSE 35 43 19 23 1019.8 - 0.0
30/09:30pm 23.5 20.3 20.2 82 2.1 SSE 37 44 20 24 1019.9 - 0.0
30/09:00pm 23.6 20.7 20.1 81 2.3 SSE 35 43 19 23 1019.6 1019.5 0.0
30/08:30pm 23.6 20.7 20.1 81 2.3 SSE 35 43 19 23 1019.6 - 0.0
30/08:00pm 23.6 20.1 20.3 82 2.1 SE 39 44 21 24 1019.3 - 0.0
30/07:30pm 23.6 21.0 19.9 80 2.4 SSE 33 39 18 21 1018.9 - 0.0
30/07:00pm 23.7 22.4 20.6 83 2.0 SSE 28 32 15 17 1018.5 - 0.0
30/06:30pm 23.6 23.1 20.7 84 1.9 SE 24 30 13 16 1018.2 - 0.0
30/05:30pm 24.1 22.2 20.2 79 2.5 SE 30 37 16 20 1017.9 - 0.0
30/05:00pm 24.1 22.4 20.6 81 2.3 SE 30 35 16 19 1017.6 - 0.0
30/04:30pm 24.3 23.1 20.8 81 2.3 SE 28 33 15 18 1017.4 - 0.0
30/04:00pm 24.6 23.3 20.7 79 2.6 SE 28 35 15 19 1017.3 - 0.0
30/03:30pm 24.8 23.7 21.7 83 2.1 SE 30 35 16 19 1017.2 - 0.0
30/03:00pm 24.7 24.6 21.4 82 2.2 SE 24 28 13 15 1017.2 1017.1 0.0
30/02:30pm 24.6 23.4 20.9 80 2.4 SSE 28 32 15 17 1017.3 - 0.0
30/02:00pm 24.7 23.7 20.4 77 2.8 SSE 26 32 14 17 1017.5 - 0.0
30/01:30pm 24.2 21.3 20.1 78 2.7 SE 35 46 19 25 1017.7 - 0.0
30/01:00pm 23.8 19.8 20.1 80 2.4 SE 41 48 22 26 1017.9 - 0.0
30/12:30pm 24.3 20.5 20.6 80 2.4 SE 41 50 22 27 1018.5 - 0.0
30/12:00pm 25.2 23.8 21.9 82 2.2 SE 32 39 17 21 1018.7 1018.6 0.0
30/11:30am 24.8 22.9 21.3 81 2.3 SE 33 44 18 24 1018.9 - 0.0
30/11:00am 24.3 23.3 22.0 87 1.5 SE 30 35 16 19 1019.1 - 0.0
30/10:30am 23.9 22.1 21.6 87 1.5 SE 33 39 18 21 1019.3 - 0.0
30/10:00am 23.8 22.5 22.1 90 1.1 SE 32 39 17 21 1019.3 - 0.0
30/09:30am 22.8 22.4 20.9 89 1.2 SSE 24 30 13 16 1019.4 - 0.0
30/09:00am 22.3 21.8 20.8 91 1.0 SSE 24 28 13 15 1019.1 1019.0 34.4
30/08:30am 21.6 23.3 20.2 92 0.9 SE 11 20 6 11 1018.8 - 34.4
30/08:00am 22.0 22.9 20.8 93 0.8 E 17 26 9 14 1018.3 - 32.8
30/07:30am 22.1 19.9 20.4 90 1.1 ESE 32 39 17 21 1017.8 - 22.4
30/07:00am 22.9 22.8 21.4 91 1.0 ESE 24 33 13 18 1017.4 - 21.2
30/06:30am 23.1 22.1 21.2 89 1.2 S 28 33 15 18 1017.1 - 19.6
30/06:00am 23.1 22.9 21.2 89 1.2 SSE 24 26 13 14 1016.9 1016.8 19.4
30/05:30am 23.0 21.9 21.1 89 1.2 SSE 28 32 15 17 1016.6 - 19.4
30/05:00am 23.0 21.9 21.1 89 1.2 SSE 28 33 15 18 1016.5 - 19.4
30/04:30am 22.8 20.8 20.7 88 1.4 SSE 32 35 17 19 1016.5 - 19.4
30/04:00am 22.7 20.8 21.0 90 1.1 SSE 32 35 17 19 1016.6 - 19.4
30/03:30am 22.4 21.0 21.2 93 0.8 SSE 30 39 16 21 1016.4 - 19.4
30/03:00am 21.6 21.9 20.8 95 0.5 SSE 20 22 11 12 1016.6 1016.5 18.6
30/02:30am 21.0 24.3 20.0 94 0.6 ENE 2 9 1 5 1017.0 - 17.8
30/02:00am 21.2 23.7 20.2 94 0.6 ESE 7 11 4 6 1017.3 - 16.2
30/01:30am 21.6 21.7 20.4 93 0.8 S 20 24 11 13 1017.3 - 6.0
30/01:00am 22.0 23.4 21.0 94 0.7 SE 15 19 8 10 1017.2 - 4.4
30/12:30am 21.7 23.2 20.5 93 0.8 ESE 13 17 7 9 1017.4 - 4.4
30/12:00am 21.4 21.9 20.0 92 0.9 ESE 17 28 9 15 1017.5 1017.4 4.4
 
Date/Time
EST
Temp
°C
App
Temp
°C
Dew
Point
Rel
Hum
%
Delta-T
°C
Wind Press
QNH
hPa
Press
MSL
hPa
Rain
since 9 am
mm
Dir
 
Spd
km/h
Gust
km/h
Spd
kts
Gust
kts
29/11:30pm 21.7 21.1 20.5 93 0.8 E 24 30 13 16 1018.0 - 4.2
29/11:00pm 21.5 20.0 20.3 93 0.8 NE 28 33 15 18 1018.0 - 4.2
29/10:30pm 21.2 19.7 20.2 94 0.6 NE 28 33 15 18 1018.2 - 4.2
29/10:15pm 21.2 18.7 20.2 94 0.6 NE 33 35 18 19 1018.2 - 4.2
29/10:00pm 21.4 17.6 20.6 95 0.5 ENE 41 52 22 28 1018.4 - 4.0
29/09:30pm 21.4 18.7 20.4 94 0.6 E 35 44 19 24 1018.2 - 1.8
29/09:00pm 21.7 20.9 20.9 95 0.5 SE 26 39 14 21 1017.9 1017.8 1.2
29/08:30pm 21.6 21.4 20.6 94 0.6 SSE 22 26 12 14 1017.7 - 0.8
29/08:00pm 21.7 21.9 20.5 93 0.8 S 20 24 11 13 1017.6 - 0.2
29/07:30pm 21.7 20.6 20.2 91 1.0 SSE 26 28 14 15 1017.4 - 0.2
29/07:00pm 22.0 19.9 20.5 91 1.0 SSE 32 35 17 19 1017.1 - 0.2
29/06:30pm 22.0 19.8 20.3 90 1.1 SSE 32 35 17 19 1016.9 - 0.2
29/06:00pm 22.4 19.9 20.9 91 1.0 SE 35 41 19 22 1016.8 1016.7 0.2
29/05:30pm 23.1 19.9 21.0 88 1.4 SE 39 46 21 25 1016.6 - 0.2
29/05:00pm 23.8 22.5 20.7 83 2.0 SSE 28 32 15 17 1016.4 - 0.2
29/04:30pm 24.0 23.7 20.3 80 2.4 SSE 22 26 12 14 1016.2 - 0.2
29/04:00pm 24.2 23.9 21.1 83 2.0 SSE 24 28 13 15 1016.3 - 0.2
29/03:30pm 24.1 22.5 20.8 82 2.2 SSE 30 35 16 19 1016.2 - 0.2
29/03:00pm 24.6 23.2 21.1 81 2.3 SSE 30 33 16 18 1016.4 1016.3 0.2
29/02:30pm 24.7 23.6 21.0 80 2.4 SSE 28 33 15 18 1016.5 - 0.2
29/02:00pm 24.6 23.2 20.5 78 2.7 SSE 28 32 15 17 1016.7 - 0.2
29/01:30pm 24.5 23.1 20.4 78 2.7 SSE 28 32 15 17 1017.0 - 0.2
29/01:00pm 24.4 22.7 20.5 79 2.5 SSE 30 35 16 19 1017.4 - 0.2
29/12:30pm 24.6 22.9 20.5 78 2.7 SE 30 33 16 18 1017.9 - 0.2
29/12:00pm 24.6 22.9 20.5 78 2.7 SE 30 33 16 18 1018.3 1018.2 0.2
29/11:30am 24.3 22.7 20.8 81 2.3 SE 30 35 16 19 1018.5 - 0.0
29/11:00am 23.9 22.4 20.2 80 2.4 SSE 28 32 15 17 1018.9 - 0.0

Other Formats:

Comma delimited format used in spreadsheet applications
http://www.bom.gov.au/fwo/IDQ60801/IDQ60801.94285.axf

JavaScript Object Notation format (JSON) in row-major order
http://www.bom.gov.au/fwo/IDQ60801/IDQ60801.94285.json